sensor_id;sensor_type;location;lat;lon;timestamp;temperature;humidity
4548;DHT22;2286;51.570;7.090;2023-09-07T00:00:11;19.00;99.90
4548;DHT22;2286;51.570;7.090;2023-09-07T00:02:38;18.90;99.90
4548;DHT22;2286;51.570;7.090;2023-09-07T00:05:06;19.00;99.90
4548;DHT22;2286;51.570;7.090;2023-09-07T00:07:35;18.90;99.90
4548;DHT22;2286;51.570;7.090;2023-09-07T00:10:02;19.00;99.90
4548;DHT22;2286;51.570;7.090;2023-09-07T00:12:30;19.00;99.90
4548;DHT22;2286;51.570;7.090;2023-09-07T00:14:57;19.00;99.90
4548;DHT22;2286;51.570;7.090;2023-09-07T00:17:25;18.90;18.00
4548;DHT22;2286;51.570;7.090;2023-09-07T00:19:52;18.90;67.50
4548;DHT22;2286;51.570;7.090;2023-09-07T00:22:22;18.90;1.00
4548;DHT22;2286;51.570;7.090;2023-09-07T00:24:50;18.90;99.00
4548;DHT22;2286;51.570;7.090;2023-09-07T00:27:17;18.80;4.80
4548;DHT22;2286;51.570;7.090;2023-09-07T00:29:44;18.80;52.20
4548;DHT22;2286;51.570;7.090;2023-09-07T00:32:11;18.80;1.00
4548;DHT22;2286;51.570;7.090;2023-09-07T00:34:37;18.80;43.90
4548;DHT22;2286;51.570;7.090;2023-09-07T00:37:04;18.80;99.90
4548;DHT22;2286;51.570;7.090;2023-09-07T00:39:31;18.80;99.90
4548;DHT22;2286;51.570;7.090;2023-09-07T00:41:59;18.70;99.90
4548;DHT22;2286;51.570;7.090;2023-09-07T00:44:26;18.70;99.90
4548;DHT22;2286;51.570;7.090;2023-09-07T00:46:52;18.60;99.90
4548;DHT22;2286;51.570;7.090;2023-09-07T00:49:19;18.60;1.00
4548;DHT22;2286;51.570;7.090;2023-09-07T00:51:46;18.60;1.00
4548;DHT22;2286;51.570;7.090;2023-09-07T00:54:13;18.50;1.00
4548;DHT22;2286;51.570;7.090;2023-09-07T00:56:40;18.50;1.00
4548;DHT22;2286;51.570;7.090;2023-09-07T00:59:09;18.40;99.90
4548;DHT22;2286;51.570;7.090;2023-09-07T01:01:38;18.40;99.90
4548;DHT22;2286;51.570;7.090;2023-09-07T01:04:05;18.30;99.90
4548;DHT22;2286;51.570;7.090;2023-09-07T01:06:37;18.30;1.00
4548;DHT22;2286;51.570;7.090;2023-09-07T01:09:10;18.20;1.00
4548;DHT22;2286;51.570;7.090;2023-09-07T01:11:38;18.20;95.10
4548;DHT22;2286;51.570;7.090;2023-09-07T01:14:05;18.10;99.90
4548;DHT22;2286;51.570;7.090;2023-09-07T01:16:34;18.10;99.90
4548;DHT22;2286;51.570;7.090;2023-09-07T01:19:01;18.10;99.90
4548;DHT22;2286;51.570;7.090;2023-09-07T01:21:34;18.00;1.00
4548;DHT22;2286;51.570;7.090;2023-09-07T01:24:02;18.00;1.00
4548;DHT22;2286;51.570;7.090;2023-09-07T01:26:30;17.90;1.00
4548;DHT22;2286;51.570;7.090;2023-09-07T01:28:57;17.90;1.00
4548;DHT22;2286;51.570;7.090;2023-09-07T01:31:24;18.00;1.00
4548;DHT22;2286;51.570;7.090;2023-09-07T01:33:51;17.90;1.00
4548;DHT22;2286;51.570;7.090;2023-09-07T01:36:18;17.90;1.00
4548;DHT22;2286;51.570;7.090;2023-09-07T01:38:46;17.90;1.00
4548;DHT22;2286;51.570;7.090;2023-09-07T01:41:13;17.90;1.00
4548;DHT22;2286;51.570;7.090;2023-09-07T01:43:39;17.80;1.00
4548;DHT22;2286;51.570;7.090;2023-09-07T01:46:06;17.80;1.00
4548;DHT22;2286;51.570;7.090;2023-09-07T01:48:33;17.80;1.00
4548;DHT22;2286;51.570;7.090;2023-09-07T01:51:00;17.80;1.00
4548;DHT22;2286;51.570;7.090;2023-09-07T01:53:27;17.70;1.00
4548;DHT22;2286;51.570;7.090;2023-09-07T01:55:55;17.80;14.60
4548;DHT22;2286;51.570;7.090;2023-09-07T01:58:24;17.80;1.00
4548;DHT22;2286;51.570;7.090;2023-09-07T02:00:52;17.70;99.90
4548;DHT22;2286;51.570;7.090;2023-09-07T02:03:23;17.70;99.90
4548;DHT22;2286;51.570;7.090;2023-09-07T02:05:49;17.70;99.90
4548;DHT22;2286;51.570;7.090;2023-09-07T02:08:16;17.60;99.90
4548;DHT22;2286;51.570;7.090;2023-09-07T02:10:43;17.60;99.90
4548;DHT22;2286;51.570;7.090;2023-09-07T02:13:11;17.50;1.00
4548;DHT22;2286;51.570;7.090;2023-09-07T02:15:38;17.50;1.00
4548;DHT22;2286;51.570;7.090;2023-09-07T02:18:05;17.50;1.00
4548;DHT22;2286;51.570;7.090;2023-09-07T02:20:32;17.40;1.00
4548;DHT22;2286;51.570;7.090;2023-09-07T02:22:59;17.40;1.00
4548;DHT22;2286;51.570;7.090;2023-09-07T02:25:26;17.40;1.00
4548;DHT22;2286;51.570;7.090;2023-09-07T02:27:55;17.30;1.00
4548;DHT22;2286;51.570;7.090;2023-09-07T02:30:23;17.30;1.00
4548;DHT22;2286;51.570;7.090;2023-09-07T02:32:50;17.20;6.90
4548;DHT22;2286;51.570;7.090;2023-09-07T02:35:17;17.20;99.90
4548;DHT22;2286;51.570;7.090;2023-09-07T02:37:44;17.20;99.90
4548;DHT22;2286;51.570;7.090;2023-09-07T02:40:11;17.20;21.30
4548;DHT22;2286;51.570;7.090;2023-09-07T02:42:38;17.10;99.90
4548;DHT22;2286;51.570;7.090;2023-09-07T02:45:06;17.10;99.90
4548;DHT22;2286;51.570;7.090;2023-09-07T02:47:34;17.10;99.90
4548;DHT22;2286;51.570;7.090;2023-09-07T02:50:01;17.00;99.90
4548;DHT22;2286;51.570;7.090;2023-09-07T02:52:27;17.00;1.00
4548;DHT22;2286;51.570;7.090;2023-09-07T02:54:54;17.10;1.00
4548;DHT22;2286;51.570;7.090;2023-09-07T02:57:21;17.00;99.90
4548;DHT22;2286;51.570;7.090;2023-09-07T02:59:48;17.00;1.00
4548;DHT22;2286;51.570;7.090;2023-09-07T03:02:15;17.00;99.90
4548;DHT22;2286;51.570;7.090;2023-09-07T03:04:43;17.00;99.90
4548;DHT22;2286;51.570;7.090;2023-09-07T03:07:10;17.00;99.90
4548;DHT22;2286;51.570;7.090;2023-09-07T03:09:36;16.90;1.00
4548;DHT22;2286;51.570;7.090;2023-09-07T03:12:04;16.80;99.90
4548;DHT22;2286;51.570;7.090;2023-09-07T03:14:31;16.90;99.90
4548;DHT22;2286;51.570;7.090;2023-09-07T03:16:58;16.90;99.90
4548;DHT22;2286;51.570;7.090;2023-09-07T03:19:25;16.80;99.90
4548;DHT22;2286;51.570;7.090;2023-09-07T03:21:54;16.80;99.90
4548;DHT22;2286;51.570;7.090;2023-09-07T03:24:20;16.80;1.00
4548;DHT22;2286;51.570;7.090;2023-09-07T03:26:47;16.80;99.90
4548;DHT22;2286;51.570;7.090;2023-09-07T03:29:14;16.80;99.90
4548;DHT22;2286;51.570;7.090;2023-09-07T03:31:41;16.70;99.90
4548;DHT22;2286;51.570;7.090;2023-09-07T03:34:08;16.80;99.90
4548;DHT22;2286;51.570;7.090;2023-09-07T03:36:35;16.70;99.90
4548;DHT22;2286;51.570;7.090;2023-09-07T03:39:03;16.70;99.90
4548;DHT22;2286;51.570;7.090;2023-09-07T03:41:33;16.60;99.90
4548;DHT22;2286;51.570;7.090;2023-09-07T03:44:03;16.60;99.90
4548;DHT22;2286;51.570;7.090;2023-09-07T03:46:30;16.60;99.90
4548;DHT22;2286;51.570;7.090;2023-09-07T03:48:57;16.60;99.90
4548;DHT22;2286;51.570;7.090;2023-09-07T03:51:25;16.60;99.90
4548;DHT22;2286;51.570;7.090;2023-09-07T03:53:52;16.70;99.90
4548;DHT22;2286;51.570;7.090;2023-09-07T03:56:20;16.60;30.00
4548;DHT22;2286;51.570;7.090;2023-09-07T03:58:47;16.60;99.90
4548;DHT22;2286;51.570;7.090;2023-09-07T04:01:14;16.50;99.90
4548;DHT22;2286;51.570;7.090;2023-09-07T04:03:40;16.50;99.90
4548;DHT22;2286;51.570;7.090;2023-09-07T04:06:08;16.40;99.90
4548;DHT22;2286;51.570;7.090;2023-09-07T04:08:35;16.40;99.90
4548;DHT22;2286;51.570;7.090;2023-09-07T04:11:03;16.40;99.90
4548;DHT22;2286;51.570;7.090;2023-09-07T04:13:32;16.30;99.90
4548;DHT22;2286;51.570;7.090;2023-09-07T04:15:59;16.30;1.00
4548;DHT22;2286;51.570;7.090;2023-09-07T04:18:26;16.40;1.00
4548;DHT22;2286;51.570;7.090;2023-09-07T04:20:56;16.30;1.00
4548;DHT22;2286;51.570;7.090;2023-09-07T04:23:30;16.30;1.00
4548;DHT22;2286;51.570;7.090;2023-09-07T04:26:06;16.20;1.00
4548;DHT22;2286;51.570;7.090;2023-09-07T04:28:38;16.20;1.00
4548;DHT22;2286;51.570;7.090;2023-09-07T04:31:05;16.20;22.40
4548;DHT22;2286;51.570;7.090;2023-09-07T04:33:33;16.20;1.00
4548;DHT22;2286;51.570;7.090;2023-09-07T04:36:07;16.20;1.00
4548;DHT22;2286;51.570;7.090;2023-09-07T04:38:35;16.10;1.00
4548;DHT22;2286;51.570;7.090;2023-09-07T04:41:06;16.10;1.00
4548;DHT22;2286;51.570;7.090;2023-09-07T04:43:33;16.10;1.00
4548;DHT22;2286;51.570;7.090;2023-09-07T04:46:01;16.10;1.00
4548;DHT22;2286;51.570;7.090;2023-09-07T04:48:28;16.10;1.00
4548;DHT22;2286;51.570;7.090;2023-09-07T04:50:58;16.20;1.00
4548;DHT22;2286;51.570;7.090;2023-09-07T04:53:26;16.20;1.00
4548;DHT22;2286;51.570;7.090;2023-09-07T04:55:53;16.10;99.90
4548;DHT22;2286;51.570;7.090;2023-09-07T04:58:20;16.00;99.90
4548;DHT22;2286;51.570;7.090;2023-09-07T05:00:47;16.00;1.00
4548;DHT22;2286;51.570;7.090;2023-09-07T05:03:15;16.00;1.00
4548;DHT22;2286;51.570;7.090;2023-09-07T05:05:42;16.00;1.00
4548;DHT22;2286;51.570;7.090;2023-09-07T05:08:10;16.00;1.00
4548;DHT22;2286;51.570;7.090;2023-09-07T05:10:38;16.00;1.00
4548;DHT22;2286;51.570;7.090;2023-09-07T05:13:04;16.00;1.00
4548;DHT22;2286;51.570;7.090;2023-09-07T05:15:31;16.00;1.00
4548;DHT22;2286;51.570;7.090;2023-09-07T05:17:58;16.00;1.00
4548;DHT22;2286;51.570;7.090;2023-09-07T05:20:26;16.00;1.00
4548;DHT22;2286;51.570;7.090;2023-09-07T05:22:56;16.00;1.00
4548;DHT22;2286;51.570;7.090;2023-09-07T05:25:24;16.10;1.00
4548;DHT22;2286;51.570;7.090;2023-09-07T05:27:51;16.10;1.00
4548;DHT22;2286;51.570;7.090;2023-09-07T05:30:18;16.10;1.00
4548;DHT22;2286;51.570;7.090;2023-09-07T05:32:45;16.20;99.90
4548;DHT22;2286;51.570;7.090;2023-09-07T05:35:12;16.20;99.90
4548;DHT22;2286;51.570;7.090;2023-09-07T05:37:42;16.30;31.50
4548;DHT22;2286;51.570;7.090;2023-09-07T05:40:10;16.30;1.00
4548;DHT22;2286;51.570;7.090;2023-09-07T05:42:37;16.20;1.00
4548;DHT22;2286;51.570;7.090;2023-09-07T05:45:05;16.30;1.00
4548;DHT22;2286;51.570;7.090;2023-09-07T05:47:32;16.40;99.90
4548;DHT22;2286;51.570;7.090;2023-09-07T05:49:59;16.40;99.90
4548;DHT22;2286;51.570;7.090;2023-09-07T05:52:25;16.40;99.90
4548;DHT22;2286;51.570;7.090;2023-09-07T05:54:54;16.50;99.90
4548;DHT22;2286;51.570;7.090;2023-09-07T05:57:20;16.60;36.30
4548;DHT22;2286;51.570;7.090;2023-09-07T05:59:47;16.60;1.00
4548;DHT22;2286;51.570;7.090;2023-09-07T06:02:14;16.70;1.00
4548;DHT22;2286;51.570;7.090;2023-09-07T06:04:41;16.70;1.00
4548;DHT22;2286;51.570;7.090;2023-09-07T06:07:08;16.70;1.00
4548;DHT22;2286;51.570;7.090;2023-09-07T06:09:35;16.80;99.90
4548;DHT22;2286;51.570;7.090;2023-09-07T06:12:04;16.90;99.90
4548;DHT22;2286;51.570;7.090;2023-09-07T06:14:31;16.90;99.90
4548;DHT22;2286;51.570;7.090;2023-09-07T06:16:57;17.00;1.00
4548;DHT22;2286;51.570;7.090;2023-09-07T06:19:24;17.10;1.00
4548;DHT22;2286;51.570;7.090;2023-09-07T06:21:51;17.20;99.90
4548;DHT22;2286;51.570;7.090;2023-09-07T06:24:18;17.30;99.90
4548;DHT22;2286;51.570;7.090;2023-09-07T06:26:45;17.30;99.90
4548;DHT22;2286;51.570;7.090;2023-09-07T06:29:16;17.40;99.90
4548;DHT22;2286;51.570;7.090;2023-09-07T06:31:43;17.50;16.10
4548;DHT22;2286;51.570;7.090;2023-09-07T06:34:10;17.60;1.00
4548;DHT22;2286;51.570;7.090;2023-09-07T06:36:37;17.70;1.00
4548;DHT22;2286;51.570;7.090;2023-09-07T06:39:04;17.70;1.00
4548;DHT22;2286;51.570;7.090;2023-09-07T06:41:31;17.80;1.00
4548;DHT22;2286;51.570;7.090;2023-09-07T06:43:57;17.80;1.00
4548;DHT22;2286;51.570;7.090;2023-09-07T06:46:26;18.00;1.00
4548;DHT22;2286;51.570;7.090;2023-09-07T06:48:53;18.00;99.90
4548;DHT22;2286;51.570;7.090;2023-09-07T06:51:19;18.20;99.90
4548;DHT22;2286;51.570;7.090;2023-09-07T06:53:46;18.20;99.90
4548;DHT22;2286;51.570;7.090;2023-09-07T06:56:13;18.30;99.90
4548;DHT22;2286;51.570;7.090;2023-09-07T06:58:40;18.40;99.90
4548;DHT22;2286;51.570;7.090;2023-09-07T07:01:06;18.40;99.90
4548;DHT22;2286;51.570;7.090;2023-09-07T07:03:34;18.50;99.90
4548;DHT22;2286;51.570;7.090;2023-09-07T07:06:01;18.60;97.40
4548;DHT22;2286;51.570;7.090;2023-09-07T07:08:28;18.60;1.00
4548;DHT22;2286;51.570;7.090;2023-09-07T07:10:55;18.70;1.00
4548;DHT22;2286;51.570;7.090;2023-09-07T07:13:22;18.80;1.00
4548;DHT22;2286;51.570;7.090;2023-09-07T07:15:48;18.80;1.00
4548;DHT22;2286;51.570;7.090;2023-09-07T07:18:15;19.00;1.00
4548;DHT22;2286;51.570;7.090;2023-09-07T07:20:44;19.00;1.00
4548;DHT22;2286;51.570;7.090;2023-09-07T07:23:11;19.10;99.90
4548;DHT22;2286;51.570;7.090;2023-09-07T07:25:38;19.20;99.90
4548;DHT22;2286;51.570;7.090;2023-09-07T07:28:05;19.30;99.90
4548;DHT22;2286;51.570;7.090;2023-09-07T07:30:33;19.40;99.90
4548;DHT22;2286;51.570;7.090;2023-09-07T07:33:00;19.50;99.90
4548;DHT22;2286;51.570;7.090;2023-09-07T07:35:29;19.60;99.90
4548;DHT22;2286;51.570;7.090;2023-09-07T07:37:57;19.70;10.80
4548;DHT22;2286;51.570;7.090;2023-09-07T07:40:24;19.70;1.00
4548;DHT22;2286;51.570;7.090;2023-09-07T07:42:52;19.90;1.00
4548;DHT22;2286;51.570;7.090;2023-09-07T07:45:19;20.00;1.00
4548;DHT22;2286;51.570;7.090;2023-09-07T07:47:48;20.10;1.00
4548;DHT22;2286;51.570;7.090;2023-09-07T07:50:15;20.20;99.90
4548;DHT22;2286;51.570;7.090;2023-09-07T07:52:42;20.30;99.90
4548;DHT22;2286;51.570;7.090;2023-09-07T07:55:10;20.40;99.90
4548;DHT22;2286;51.570;7.090;2023-09-07T07:57:37;20.60;99.90
4548;DHT22;2286;51.570;7.090;2023-09-07T08:00:05;20.70;50.60
4548;DHT22;2286;51.570;7.090;2023-09-07T08:02:33;20.70;1.00
4548;DHT22;2286;51.570;7.090;2023-09-07T08:05:00;20.80;1.00
4548;DHT22;2286;51.570;7.090;2023-09-07T08:07:27;21.00;1.00
4548;DHT22;2286;51.570;7.090;2023-09-07T08:09:53;21.10;1.00
4548;DHT22;2286;51.570;7.090;2023-09-07T08:12:21;21.20;1.00
4548;DHT22;2286;51.570;7.090;2023-09-07T08:14:48;21.30;99.90
4548;DHT22;2286;51.570;7.090;2023-09-07T08:17:15;21.40;99.90
4548;DHT22;2286;51.570;7.090;2023-09-07T08:19:42;21.50;99.90
4548;DHT22;2286;51.570;7.090;2023-09-07T08:22:09;21.60;99.90
4548;DHT22;2286;51.570;7.090;2023-09-07T08:24:36;21.70;99.90
4548;DHT22;2286;51.570;7.090;2023-09-07T08:27:03;21.70;99.90
4548;DHT22;2286;51.570;7.090;2023-09-07T08:29:31;21.80;99.90
4548;DHT22;2286;51.570;7.090;2023-09-07T08:31:58;21.80;99.90
4548;DHT22;2286;51.570;7.090;2023-09-07T08:34:27;21.90;18.60
4548;DHT22;2286;51.570;7.090;2023-09-07T08:36:54;22.00;1.00
4548;DHT22;2286;51.570;7.090;2023-09-07T08:39:24;22.20;1.00
4548;DHT22;2286;51.570;7.090;2023-09-07T08:41:51;22.30;1.00
4548;DHT22;2286;51.570;7.090;2023-09-07T08:44:18;22.50;1.00
4548;DHT22;2286;51.570;7.090;2023-09-07T08:46:51;22.60;1.00
4548;DHT22;2286;51.570;7.090;2023-09-07T08:49:19;22.80;1.00
4548;DHT22;2286;51.570;7.090;2023-09-07T08:51:47;23.00;1.00
4548;DHT22;2286;51.570;7.090;2023-09-07T08:54:14;23.20;1.00
4548;DHT22;2286;51.570;7.090;2023-09-07T08:56:41;23.40;99.90
4548;DHT22;2286;51.570;7.090;2023-09-07T08:59:08;23.60;99.90
4548;DHT22;2286;51.570;7.090;2023-09-07T09:01:34;23.70;99.90
4548;DHT22;2286;51.570;7.090;2023-09-07T09:04:04;23.80;99.90
4548;DHT22;2286;51.570;7.090;2023-09-07T09:06:31;23.80;99.90
4548;DHT22;2286;51.570;7.090;2023-09-07T09:08:58;23.90;99.90
4548;DHT22;2286;51.570;7.090;2023-09-07T09:11:26;24.00;99.90
4548;DHT22;2286;51.570;7.090;2023-09-07T09:13:54;24.20;99.90
4548;DHT22;2286;51.570;7.090;2023-09-07T09:16:21;24.40;99.90
4548;DHT22;2286;51.570;7.090;2023-09-07T09:18:48;24.50;99.90
4548;DHT22;2286;51.570;7.090;2023-09-07T09:21:19;24.70;99.90
4548;DHT22;2286;51.570;7.090;2023-09-07T09:23:48;24.90;99.90
4548;DHT22;2286;51.570;7.090;2023-09-07T09:26:15;25.10;99.90
4548;DHT22;2286;51.570;7.090;2023-09-07T09:28:42;25.30;99.90
4548;DHT22;2286;51.570;7.090;2023-09-07T09:31:10;25.60;99.90
4548;DHT22;2286;51.570;7.090;2023-09-07T09:33:38;25.80;99.90
4548;DHT22;2286;51.570;7.090;2023-09-07T09:36:05;26.20;99.90
4548;DHT22;2286;51.570;7.090;2023-09-07T09:38:34;26.40;99.90
4548;DHT22;2286;51.570;7.090;2023-09-07T09:41:02;26.60;99.90
4548;DHT22;2286;51.570;7.090;2023-09-07T09:43:29;26.90;99.90
4548;DHT22;2286;51.570;7.090;2023-09-07T09:45:56;27.10;99.90
4548;DHT22;2286;51.570;7.090;2023-09-07T09:48:23;27.40;99.90
4548;DHT22;2286;51.570;7.090;2023-09-07T09:50:50;27.60;99.90
4548;DHT22;2286;51.570;7.090;2023-09-07T09:53:18;27.90;99.90
4548;DHT22;2286;51.570;7.090;2023-09-07T09:55:48;28.30;99.90
4548;DHT22;2286;51.570;7.090;2023-09-07T09:58:16;28.60;99.90
4548;DHT22;2286;51.570;7.090;2023-09-07T10:00:44;28.90;99.90
4548;DHT22;2286;51.570;7.090;2023-09-07T10:03:19;29.40;99.90
4548;DHT22;2286;51.570;7.090;2023-09-07T10:05:49;30.00;99.90
4548;DHT22;2286;51.570;7.090;2023-09-07T10:08:18;30.90;99.90
4548;DHT22;2286;51.570;7.090;2023-09-07T10:10:47;32.00;99.90
4548;DHT22;2286;51.570;7.090;2023-09-07T10:13:15;32.70;99.90
4548;DHT22;2286;51.570;7.090;2023-09-07T10:15:42;33.40;99.90
4548;DHT22;2286;51.570;7.090;2023-09-07T10:18:12;34.10;99.90
4548;DHT22;2286;51.570;7.090;2023-09-07T10:20:50;34.60;99.90
4548;DHT22;2286;51.570;7.090;2023-09-07T10:23:18;35.10;99.90
4548;DHT22;2286;51.570;7.090;2023-09-07T10:25:49;35.70;99.90
4548;DHT22;2286;51.570;7.090;2023-09-07T10:28:20;36.10;99.90
4548;DHT22;2286;51.570;7.090;2023-09-07T10:30:58;36.30;99.90
4548;DHT22;2286;51.570;7.090;2023-09-07T10:33:25;36.80;99.90
4548;DHT22;2286;51.570;7.090;2023-09-07T10:35:52;36.90;99.90
4548;DHT22;2286;51.570;7.090;2023-09-07T10:38:19;37.00;99.90
4548;DHT22;2286;51.570;7.090;2023-09-07T10:40:49;37.40;99.90
4548;DHT22;2286;51.570;7.090;2023-09-07T10:43:23;38.00;99.90
4548;DHT22;2286;51.570;7.090;2023-09-07T10:45:49;38.70;99.90
4548;DHT22;2286;51.570;7.090;2023-09-07T10:48:16;38.90;99.90
4548;DHT22;2286;51.570;7.090;2023-09-07T10:50:44;38.60;99.90
4548;DHT22;2286;51.570;7.090;2023-09-07T10:53:12;38.70;99.90
4548;DHT22;2286;51.570;7.090;2023-09-07T10:55:40;38.70;99.90
4548;DHT22;2286;51.570;7.090;2023-09-07T10:58:10;39.30;99.90
4548;DHT22;2286;51.570;7.090;2023-09-07T11:00:37;40.00;99.90
4548;DHT22;2286;51.570;7.090;2023-09-07T11:03:08;39.60;99.90
4548;DHT22;2286;51.570;7.090;2023-09-07T11:05:35;39.40;99.90
4548;DHT22;2286;51.570;7.090;2023-09-07T11:08:04;39.50;99.90
4548;DHT22;2286;51.570;7.090;2023-09-07T11:10:33;39.80;99.90
4548;DHT22;2286;51.570;7.090;2023-09-07T11:13:02;39.90;99.90
4548;DHT22;2286;51.570;7.090;2023-09-07T11:15:31;40.40;99.90
4548;DHT22;2286;51.570;7.090;2023-09-07T11:18:03;40.80;99.90
4548;DHT22;2286;51.570;7.090;2023-09-07T11:20:30;41.20;99.90
4548;DHT22;2286;51.570;7.090;2023-09-07T11:22:58;41.00;99.90
4548;DHT22;2286;51.570;7.090;2023-09-07T11:25:25;41.20;99.90
4548;DHT22;2286;51.570;7.090;2023-09-07T11:27:52;41.50;99.90
4548;DHT22;2286;51.570;7.090;2023-09-07T11:30:20;42.30;99.90
4548;DHT22;2286;51.570;7.090;2023-09-07T11:32:48;42.10;99.90
4548;DHT22;2286;51.570;7.090;2023-09-07T11:35:15;41.60;99.90
4548;DHT22;2286;51.570;7.090;2023-09-07T11:37:42;42.00;99.90
4548;DHT22;2286;51.570;7.090;2023-09-07T11:40:10;42.60;99.90
4548;DHT22;2286;51.570;7.090;2023-09-07T11:42:38;42.50;99.90
4548;DHT22;2286;51.570;7.090;2023-09-07T11:45:07;42.70;99.90
4548;DHT22;2286;51.570;7.090;2023-09-07T11:47:34;43.00;99.90
4548;DHT22;2286;51.570;7.090;2023-09-07T11:50:05;43.10;99.90
4548;DHT22;2286;51.570;7.090;2023-09-07T11:52:32;43.30;99.90
4548;DHT22;2286;51.570;7.090;2023-09-07T11:55:00;44.00;99.90
4548;DHT22;2286;51.570;7.090;2023-09-07T11:57:29;44.00;99.90
4548;DHT22;2286;51.570;7.090;2023-09-07T11:59:56;43.70;99.90
4548;DHT22;2286;51.570;7.090;2023-09-07T12:02:23;44.30;99.90
4548;DHT22;2286;51.570;7.090;2023-09-07T12:04:50;44.90;99.90
4548;DHT22;2286;51.570;7.090;2023-09-07T12:07:18;44.90;99.90
4548;DHT22;2286;51.570;7.090;2023-09-07T12:09:45;44.60;99.90
4548;DHT22;2286;51.570;7.090;2023-09-07T12:12:12;44.40;99.90
4548;DHT22;2286;51.570;7.090;2023-09-07T12:14:38;44.40;99.90
4548;DHT22;2286;51.570;7.090;2023-09-07T12:17:05;45.00;99.90
4548;DHT22;2286;51.570;7.090;2023-09-07T12:19:32;45.30;99.90
4548;DHT22;2286;51.570;7.090;2023-09-07T12:21:59;45.40;99.90
4548;DHT22;2286;51.570;7.090;2023-09-07T12:24:27;45.30;99.90
4548;DHT22;2286;51.570;7.090;2023-09-07T12:26:54;45.40;99.90
4548;DHT22;2286;51.570;7.090;2023-09-07T12:29:21;45.80;99.90
4548;DHT22;2286;51.570;7.090;2023-09-07T12:31:48;45.40;99.90
4548;DHT22;2286;51.570;7.090;2023-09-07T12:34:14;45.80;99.90
4548;DHT22;2286;51.570;7.090;2023-09-07T12:36:41;45.70;99.90
4548;DHT22;2286;51.570;7.090;2023-09-07T12:39:08;46.30;99.90
4548;DHT22;2286;51.570;7.090;2023-09-07T12:41:39;46.30;99.90
4548;DHT22;2286;51.570;7.090;2023-09-07T12:44:06;46.70;99.90
4548;DHT22;2286;51.570;7.090;2023-09-07T12:46:34;47.10;99.90
4548;DHT22;2286;51.570;7.090;2023-09-07T12:49:02;47.40;99.90
4548;DHT22;2286;51.570;7.090;2023-09-07T12:51:29;46.80;99.90
4548;DHT22;2286;51.570;7.090;2023-09-07T12:53:56;47.10;99.90
4548;DHT22;2286;51.570;7.090;2023-09-07T12:56:23;47.10;99.90
4548;DHT22;2286;51.570;7.090;2023-09-07T12:58:51;47.40;99.90
4548;DHT22;2286;51.570;7.090;2023-09-07T13:01:18;47.00;99.90
4548;DHT22;2286;51.570;7.090;2023-09-07T13:03:45;47.20;99.90
4548;DHT22;2286;51.570;7.090;2023-09-07T13:06:12;47.80;99.90
4548;DHT22;2286;51.570;7.090;2023-09-07T13:08:39;48.10;99.90
4548;DHT22;2286;51.570;7.090;2023-09-07T13:11:06;48.40;99.90
4548;DHT22;2286;51.570;7.090;2023-09-07T13:13:32;48.10;99.90
4548;DHT22;2286;51.570;7.090;2023-09-07T13:16:01;47.90;99.90
4548;DHT22;2286;51.570;7.090;2023-09-07T13:18:27;47.40;99.90
4548;DHT22;2286;51.570;7.090;2023-09-07T13:20:54;47.20;99.90
4548;DHT22;2286;51.570;7.090;2023-09-07T13:23:25;47.40;99.90
4548;DHT22;2286;51.570;7.090;2023-09-07T13:25:52;46.70;99.90
4548;DHT22;2286;51.570;7.090;2023-09-07T13:28:19;47.20;99.90
4548;DHT22;2286;51.570;7.090;2023-09-07T13:30:45;47.80;99.90
4548;DHT22;2286;51.570;7.090;2023-09-07T13:33:13;47.60;99.90
4548;DHT22;2286;51.570;7.090;2023-09-07T13:35:40;48.60;99.90
4548;DHT22;2286;51.570;7.090;2023-09-07T13:38:07;48.10;99.90
4548;DHT22;2286;51.570;7.090;2023-09-07T13:40:34;48.20;99.90
4548;DHT22;2286;51.570;7.090;2023-09-07T13:43:01;48.40;99.90
4548;DHT22;2286;51.570;7.090;2023-09-07T13:45:27;48.60;99.90
4548;DHT22;2286;51.570;7.090;2023-09-07T13:47:55;48.20;99.90
4548;DHT22;2286;51.570;7.090;2023-09-07T13:50:24;48.60;99.90
4548;DHT22;2286;51.570;7.090;2023-09-07T13:52:50;48.50;99.90
4548;DHT22;2286;51.570;7.090;2023-09-07T13:55:17;48.60;99.90
4548;DHT22;2286;51.570;7.090;2023-09-07T13:57:44;48.50;99.90
4548;DHT22;2286;51.570;7.090;2023-09-07T14:00:11;48.50;99.90
4548;DHT22;2286;51.570;7.090;2023-09-07T14:02:38;48.70;99.90
4548;DHT22;2286;51.570;7.090;2023-09-07T14:05:05;48.90;99.90
4548;DHT22;2286;51.570;7.090;2023-09-07T14:07:34;48.70;99.90
4548;DHT22;2286;51.570;7.090;2023-09-07T14:10:01;48.60;99.90
4548;DHT22;2286;51.570;7.090;2023-09-07T14:12:28;48.40;99.90
4548;DHT22;2286;51.570;7.090;2023-09-07T14:14:55;48.60;99.90
4548;DHT22;2286;51.570;7.090;2023-09-07T14:17:22;49.00;99.90
4548;DHT22;2286;51.570;7.090;2023-09-07T14:19:48;49.70;99.90
4548;DHT22;2286;51.570;7.090;2023-09-07T14:22:15;50.00;99.90
4548;DHT22;2286;51.570;7.090;2023-09-07T14:24:43;49.50;99.90
4548;DHT22;2286;51.570;7.090;2023-09-07T14:27:10;50.10;99.90
4548;DHT22;2286;51.570;7.090;2023-09-07T14:29:37;50.00;99.90
4548;DHT22;2286;51.570;7.090;2023-09-07T14:32:04;49.80;99.90
4548;DHT22;2286;51.570;7.090;2023-09-07T14:34:31;49.30;99.90
4548;DHT22;2286;51.570;7.090;2023-09-07T14:36:58;48.50;99.90
4548;DHT22;2286;51.570;7.090;2023-09-07T14:39:25;48.10;99.90
4548;DHT22;2286;51.570;7.090;2023-09-07T14:41:53;48.20;99.90
4548;DHT22;2286;51.570;7.090;2023-09-07T14:44:20;49.10;99.90
4548;DHT22;2286;51.570;7.090;2023-09-07T14:46:47;49.30;99.90
4548;DHT22;2286;51.570;7.090;2023-09-07T14:49:15;49.80;99.90
4548;DHT22;2286;51.570;7.090;2023-09-07T14:51:43;49.90;99.90
4548;DHT22;2286;51.570;7.090;2023-09-07T14:54:10;49.80;99.90
4548;DHT22;2286;51.570;7.090;2023-09-07T14:56:37;49.30;99.90
4548;DHT22;2286;51.570;7.090;2023-09-07T14:59:06;50.30;99.90
4548;DHT22;2286;51.570;7.090;2023-09-07T15:01:33;50.30;99.90
4548;DHT22;2286;51.570;7.090;2023-09-07T15:04:00;50.70;99.90
4548;DHT22;2286;51.570;7.090;2023-09-07T15:06:27;50.10;99.90
4548;DHT22;2286;51.570;7.090;2023-09-07T15:08:54;49.10;99.90
4548;DHT22;2286;51.570;7.090;2023-09-07T15:11:21;49.60;99.90
4548;DHT22;2286;51.570;7.090;2023-09-07T15:13:49;49.70;99.90
4548;DHT22;2286;51.570;7.090;2023-09-07T15:16:18;49.50;99.90
4548;DHT22;2286;51.570;7.090;2023-09-07T15:18:45;48.80;99.90
4548;DHT22;2286;51.570;7.090;2023-09-07T15:21:12;48.80;99.90
4548;DHT22;2286;51.570;7.090;2023-09-07T15:23:38;48.80;99.90
4548;DHT22;2286;51.570;7.090;2023-09-07T15:26:05;49.30;99.90
4548;DHT22;2286;51.570;7.090;2023-09-07T15:28:32;49.00;99.90
4548;DHT22;2286;51.570;7.090;2023-09-07T15:30:59;49.10;99.90
4548;DHT22;2286;51.570;7.090;2023-09-07T15:33:27;49.10;99.90
4548;DHT22;2286;51.570;7.090;2023-09-07T15:35:54;49.10;99.90
4548;DHT22;2286;51.570;7.090;2023-09-07T15:38:20;49.10;99.90
4548;DHT22;2286;51.570;7.090;2023-09-07T15:40:48;49.10;99.90
4548;DHT22;2286;51.570;7.090;2023-09-07T15:43:15;48.20;99.90
4548;DHT22;2286;51.570;7.090;2023-09-07T15:45:41;48.10;99.90
4548;DHT22;2286;51.570;7.090;2023-09-07T15:48:11;48.20;99.90
4548;DHT22;2286;51.570;7.090;2023-09-07T15:50:39;48.60;99.90
4548;DHT22;2286;51.570;7.090;2023-09-07T15:53:07;48.60;99.90
4548;DHT22;2286;51.570;7.090;2023-09-07T15:55:34;48.60;99.90
4548;DHT22;2286;51.570;7.090;2023-09-07T15:58:01;48.30;99.90
4548;DHT22;2286;51.570;7.090;2023-09-07T16:00:28;48.60;99.90
4548;DHT22;2286;51.570;7.090;2023-09-07T16:02:55;48.80;99.90
4548;DHT22;2286;51.570;7.090;2023-09-07T16:05:22;48.20;99.90
4548;DHT22;2286;51.570;7.090;2023-09-07T16:07:52;48.00;99.90